Terminal Aerodrome Forecast
Issued by NWS Topeka, KS

Home | Current Version | Previous Version | Graphics & Text | Print | Product List | Glossary On
Versions: 1 2 3 4 5 6 7 8 9 10 11 12 13 14 15 16 17
000
FTUS43 KTOP 300824 AAA
TAFTOP
TAF AMD
KTOP 300824Z 3008/3106 VRB03KT P6SM MIFG SCT090
      TEMPO 3008/3012 1/2SM FG VV001
     FM301600 16005KT P6SM FEW100
     FM310100 VRB03KT P6SM SKC=

USA.gov is the U.S. government's official web portal to all federal, state and local government web resources and services.